UAE706 FSIA-OMDB
Flight info
| Callsign | UAE706 |
|---|---|
| Flight time | 4h 2m |
| Altitude | 39000 |
| Route | DULMA1B DULMA T145 GEPAX/N0476F380 DCT IMTIP/N0476F390 UM314 SUHIL R401 VELIK/N0475F400 R401 MUSAP/N0457F350 R401 PEDOG Q308 KIPOK Q568 IMPED |
| Aircraft | B772/H-SDE2E3FGHIJ5LORVWXY/AA6BA4 |
Departure
| Time | 2026-04-15 21:20 |
|---|---|
| Airport | Seychelles International Airport (FSIA) |
Arrival
| Time | 2026-04-16 01:23 |
|---|---|
| Airport | Dubai International Airport (OMDB) |
| Time | Latitude | Longitude | Altitude | Speed | Heading |
|---|---|---|---|---|---|
| 2026-04-15 20:39 | -4.67048 | 55.51190 | 23 ft | 0 kts | 216° |
| 2026-04-15 21:13 | -4.67045 | 55.51192 | 23 ft | 2 kts | 216° |
| 2026-04-15 21:13 | -4.67033 | 55.51201 | 22 ft | 2 kts | 216° |
| 2026-04-15 21:13 | -4.67020 | 55.51210 | 22 ft | 2 kts | 215° |
| 2026-04-15 21:14 | -4.67008 | 55.51218 | 21 ft | 2 kts | 221° |
| 2026-04-15 21:14 | -4.67000 | 55.51231 | 21 ft | 2 kts | 262° |
| 2026-04-15 21:14 | -4.67001 | 55.51246 | 21 ft | 2 kts | 294° |
| 2026-04-15 21:14 | -4.67003 | 55.51250 | 21 ft | 0 kts | 304° |
| 2026-04-15 21:15 | -4.66993 | 55.51232 | 21 ft | 2 kts | 302° |
| 2026-04-15 21:15 | -4.66990 | 55.51228 | 21 ft | 0 kts | 303° |
| 2026-04-15 21:17 | -4.66983 | 55.51217 | 21 ft | 4 kts | 303° |
| 2026-04-15 21:17 | -4.66944 | 55.51195 | 21 ft | 8 kts | 1° |
| 2026-04-15 21:18 | -4.66883 | 55.51187 | 21 ft | 9 kts | 315° |
| 2026-04-15 21:18 | -4.66840 | 55.51130 | 21 ft | 10 kts | 306° |
| 2026-04-15 21:18 | -4.66794 | 55.51069 | 21 ft | 11 kts | 306° |
| 2026-04-15 21:18 | -4.66730 | 55.51057 | 21 ft | 11 kts | 32° |
| 2026-04-15 21:19 | -4.66684 | 55.51111 | 21 ft | 10 kts | 105° |
| 2026-04-15 21:19 | -4.66697 | 55.51134 | 21 ft | 10 kts | 123° |
| 2026-04-15 21:19 | -4.66901 | 55.51426 | 21 ft | 89 kts | 124° |
| 2026-04-15 21:19 | -4.67398 | 55.52130 | 23 ft | 155 kts | 126° |
| 2026-04-15 21:20 | -4.68079 | 55.53067 | 519 ft | 164 kts | 126° |
| 2026-04-15 21:20 | -4.68730 | 55.54004 | 1093 ft | 173 kts | 124° |
| 2026-04-15 21:20 | -4.69416 | 55.55011 | 1624 ft | 182 kts | 124° |
| 2026-04-15 21:20 | -4.70174 | 55.56101 | 2082 ft | 197 kts | 124° |
| 2026-04-15 21:21 | -4.70988 | 55.57264 | 2582 ft | 211 kts | 124° |
| 2026-04-15 21:21 | -4.71855 | 55.58504 | 3074 ft | 228 kts | 124° |
| 2026-04-15 21:21 | -4.72807 | 55.59865 | 3704 ft | 245 kts | 124° |
| 2026-04-15 21:21 | -4.73642 | 55.61377 | 4294 ft | 261 kts | 107° |
| 2026-04-15 21:22 | -4.73779 | 55.63223 | 4981 ft | 273 kts | 79° |
| 2026-04-15 21:22 | -4.73034 | 55.64951 | 5822 ft | 276 kts | 51° |
| 2026-04-15 21:22 | -4.71554 | 55.66162 | 6630 ft | 279 kts | 24° |
| 2026-04-15 21:22 | -4.69667 | 55.66614 | 7449 ft | 281 kts | 6° |
| 2026-04-15 21:23 | -4.67769 | 55.67078 | 8190 ft | 286 kts | 26° |
| 2026-04-15 21:23 | -4.66129 | 55.68207 | 8897 ft | 291 kts | 42° |
| 2026-04-15 21:23 | -4.64728 | 55.69664 | 9649 ft | 295 kts | 49° |
| 2026-04-15 21:23 | -4.63394 | 55.71254 | 10362 ft | 301 kts | 50° |
| 2026-04-15 21:24 | -4.62044 | 55.72891 | 10816 ft | 316 kts | 50° |
| 2026-04-15 21:24 | -4.60592 | 55.74647 | 11301 ft | 331 kts | 50° |
| 2026-04-15 21:24 | -4.59104 | 55.76442 | 11774 ft | 345 kts | 50° |
| 2026-04-15 21:24 | -4.57535 | 55.78333 | 12251 ft | 359 kts | 50° |
| 2026-04-15 21:25 | -4.55900 | 55.80303 | 12723 ft | 373 kts | 50° |
| 2026-04-15 21:25 | -4.54224 | 55.82322 | 13232 ft | 384 kts | 50° |
| 2026-04-15 21:25 | -4.52512 | 55.84383 | 13925 ft | 389 kts | 50° |
| 2026-04-15 21:25 | -4.50762 | 55.86491 | 14719 ft | 391 kts | 50° |
| 2026-04-15 21:26 | -4.49019 | 55.88591 | 15487 ft | 394 kts | 50° |
| 2026-04-15 21:26 | -4.47244 | 55.90700 | 16195 ft | 398 kts | 47° |
| 2026-04-15 21:26 | -4.45211 | 55.92581 | 16873 ft | 402 kts | 38° |
| 2026-04-15 21:26 | -4.42856 | 55.94091 | 17578 ft | 405 kts | 28° |
| 2026-04-15 21:27 | -4.40209 | 55.95191 | 18217 ft | 411 kts | 18° |
| 2026-04-15 21:27 | -4.37399 | 55.95806 | 18764 ft | 419 kts | 7° |
| 2026-04-15 21:27 | -4.34477 | 55.95939 | 19389 ft | 424 kts | 0° |
| 2026-04-15 21:27 | -4.31497 | 55.95920 | 20057 ft | 427 kts | 359° |
| 2026-04-15 21:28 | -4.28502 | 55.95897 | 20690 ft | 432 kts | 359° |
| 2026-04-15 21:28 | -4.25505 | 55.95878 | 21268 ft | 437 kts | 359° |
| 2026-04-15 21:28 | -4.22426 | 55.95861 | 21851 ft | 442 kts | 358° |
| 2026-04-15 21:28 | -4.19345 | 55.95848 | 22414 ft | 447 kts | 358° |
| 2026-04-15 21:29 | -4.16197 | 55.95835 | 23063 ft | 450 kts | 358° |
| 2026-04-15 21:29 | -4.13042 | 55.95824 | 23788 ft | 451 kts | 358° |
| 2026-04-15 21:29 | -4.09928 | 55.95815 | 24483 ft | 452 kts | 358° |
| 2026-04-15 21:29 | -4.06743 | 55.95805 | 25087 ft | 455 kts | 358° |
| 2026-04-15 21:30 | -4.03557 | 55.95795 | 25639 ft | 459 kts | 358° |
| 2026-04-15 21:30 | -4.00345 | 55.95786 | 26206 ft | 462 kts | 358° |
| 2026-04-15 21:30 | -3.97152 | 55.95777 | 26794 ft | 463 kts | 358° |
| 2026-04-15 21:30 | -3.93915 | 55.95769 | 27386 ft | 465 kts | 358° |
| 2026-04-15 21:31 | -3.87392 | 55.95751 | 28461 ft | 469 kts | 357° |
| 2026-04-15 21:31 | -3.84103 | 55.95742 | 28993 ft | 471 kts | 357° |
| 2026-04-15 21:32 | -3.77490 | 55.95725 | 30080 ft | 475 kts | 357° |
| 2026-04-15 21:32 | -3.74223 | 55.95717 | 30671 ft | 475 kts | 357° |
| 2026-04-15 21:32 | -3.70909 | 55.95708 | 31230 ft | 476 kts | 357° |
| 2026-04-15 21:32 | -3.67557 | 55.95700 | 31777 ft | 477 kts | 357° |
| 2026-04-15 21:33 | -3.64248 | 55.95691 | 32298 ft | 478 kts | 357° |
| 2026-04-15 21:33 | -3.60920 | 55.95683 | 32823 ft | 479 kts | 357° |
| 2026-04-15 21:33 | -3.57554 | 55.95674 | 33404 ft | 479 kts | 357° |
| 2026-04-15 21:33 | -3.54246 | 55.95666 | 34074 ft | 477 kts | 357° |
| 2026-04-15 21:34 | -3.50914 | 55.95657 | 34758 ft | 474 kts | 357° |
| 2026-04-15 21:34 | -3.47605 | 55.95649 | 35371 ft | 472 kts | 356° |
| 2026-04-15 21:34 | -3.44331 | 55.95641 | 35868 ft | 472 kts | 356° |
| 2026-04-15 21:34 | -3.41017 | 55.95632 | 36276 ft | 473 kts | 356° |
| 2026-04-15 21:35 | -3.37715 | 55.95623 | 36654 ft | 474 kts | 356° |
| 2026-04-15 21:35 | -3.34431 | 55.95615 | 37090 ft | 473 kts | 356° |
| 2026-04-15 21:35 | -3.31121 | 55.95606 | 37518 ft | 472 kts | 356° |
| 2026-04-15 21:35 | -3.27764 | 55.95598 | 37878 ft | 472 kts | 356° |
| 2026-04-15 21:36 | -3.24476 | 55.95589 | 38195 ft | 473 kts | 356° |
| 2026-04-15 21:36 | -3.21166 | 55.95580 | 38504 ft | 473 kts | 356° |
| 2026-04-15 21:36 | -3.17850 | 55.95571 | 38816 ft | 473 kts | 356° |
| 2026-04-15 21:36 | -3.14543 | 55.95563 | 39150 ft | 473 kts | 356° |
| 2026-04-15 21:37 | -3.11213 | 55.95554 | 39497 ft | 471 kts | 356° |
| 2026-04-15 21:37 | -3.07917 | 55.95546 | 39838 ft | 470 kts | 356° |
| 2026-04-15 21:37 | -3.04637 | 55.95538 | 40121 ft | 469 kts | 356° |
| 2026-04-15 21:37 | -3.01360 | 55.95530 | 40387 ft | 468 kts | 356° |
| 2026-04-15 21:38 | -2.98111 | 55.95521 | 40616 ft | 468 kts | 356° |
| 2026-04-15 21:38 | -2.94822 | 55.95512 | 40836 ft | 467 kts | 356° |
| 2026-04-15 21:38 | -2.91575 | 55.95504 | 40858 ft | 469 kts | 356° |
| 2026-04-15 21:39 | -2.85039 | 55.95487 | 40865 ft | 466 kts | 356° |
| 2026-04-15 21:39 | -2.78534 | 55.95470 | 40868 ft | 465 kts | 356° |
| 2026-04-15 21:40 | -2.71994 | 55.95453 | 40866 ft | 467 kts | 356° |
| 2026-04-15 21:40 | -2.65484 | 55.95437 | 40867 ft | 465 kts | 356° |
| 2026-04-15 21:41 | -2.58998 | 55.95419 | 40866 ft | 469 kts | 356° |
| 2026-04-15 21:41 | -2.52455 | 55.95402 | 40866 ft | 468 kts | 356° |
| 2026-04-15 21:42 | -2.45941 | 55.95386 | 40868 ft | 466 kts | 356° |
| 2026-04-15 21:42 | -2.39434 | 55.95369 | 40868 ft | 466 kts | 356° |
| 2026-04-15 21:43 | -2.32934 | 55.95352 | 40866 ft | 466 kts | 356° |
| 2026-04-15 21:43 | -2.26430 | 55.95335 | 40868 ft | 465 kts | 356° |
| 2026-04-15 21:44 | -2.19954 | 55.95223 | 40862 ft | 464 kts | 350° |
| 2026-04-15 21:44 | -2.13569 | 55.94146 | 40868 ft | 462 kts | 346° |
| 2026-04-15 21:45 | -2.07255 | 55.92968 | 40869 ft | 463 kts | 346° |
| 2026-04-15 21:45 | -2.00911 | 55.91788 | 40865 ft | 462 kts | 346° |
| 2026-04-15 21:46 | -1.94536 | 55.90603 | 40864 ft | 461 kts | 346° |
| 2026-04-15 21:46 | -1.88223 | 55.89431 | 40868 ft | 460 kts | 346° |
| 2026-04-15 21:47 | -1.81932 | 55.88262 | 40865 ft | 462 kts | 346° |
| 2026-04-15 21:47 | -1.75557 | 55.87079 | 40861 ft | 462 kts | 346° |
| 2026-04-15 21:48 | -1.69232 | 55.85905 | 40851 ft | 461 kts | 346° |
| 2026-04-15 21:48 | -1.62860 | 55.84722 | 40849 ft | 461 kts | 346° |
| 2026-04-15 21:49 | -1.56530 | 55.83548 | 40849 ft | 461 kts | 346° |
| 2026-04-15 21:49 | -1.50179 | 55.82369 | 40857 ft | 461 kts | 346° |
| 2026-04-15 21:50 | -1.43866 | 55.81198 | 40862 ft | 460 kts | 346° |
| 2026-04-15 21:50 | -1.37531 | 55.80022 | 40866 ft | 459 kts | 346° |
| 2026-04-15 21:51 | -1.31248 | 55.78857 | 40862 ft | 460 kts | 346° |
| 2026-04-15 21:51 | -1.24957 | 55.77690 | 40867 ft | 459 kts | 346° |
| 2026-04-15 21:52 | -1.18624 | 55.76515 | 40866 ft | 461 kts | 346° |
| 2026-04-15 21:52 | -1.12322 | 55.75346 | 40865 ft | 460 kts | 346° |
| 2026-04-15 21:53 | -1.06021 | 55.74177 | 40865 ft | 460 kts | 346° |
| 2026-04-15 21:53 | -0.99684 | 55.73002 | 40864 ft | 459 kts | 346° |
| 2026-04-15 21:54 | -0.93348 | 55.71826 | 40865 ft | 461 kts | 346° |
| 2026-04-15 21:54 | -0.86998 | 55.70649 | 40866 ft | 461 kts | 346° |
| 2026-04-15 21:55 | -0.80671 | 55.69476 | 40867 ft | 459 kts | 346° |
| 2026-04-15 21:55 | -0.74365 | 55.68306 | 40865 ft | 460 kts | 346° |
| 2026-04-15 21:56 | -0.68070 | 55.67138 | 40867 ft | 459 kts | 346° |
| 2026-04-15 21:56 | -0.61753 | 55.65967 | 40865 ft | 459 kts | 346° |
| 2026-04-15 21:57 | -0.55463 | 55.64801 | 40867 ft | 459 kts | 346° |
| 2026-04-15 21:57 | -0.49147 | 55.63629 | 40864 ft | 458 kts | 346° |
| 2026-04-15 21:58 | -0.42860 | 55.62463 | 40865 ft | 459 kts | 346° |
| 2026-04-15 21:58 | -0.36570 | 55.61297 | 40864 ft | 459 kts | 346° |
| 2026-04-15 21:59 | -0.30254 | 55.60126 | 40865 ft | 459 kts | 346° |
| 2026-04-15 21:59 | -0.23961 | 55.58959 | 40865 ft | 458 kts | 346° |
| 2026-04-15 22:00 | -0.17682 | 55.57795 | 40864 ft | 458 kts | 347° |
| 2026-04-15 22:00 | -0.11385 | 55.56627 | 40857 ft | 459 kts | 346° |
| 2026-04-15 22:01 | -0.05082 | 55.55459 | 40847 ft | 459 kts | 346° |
| 2026-04-15 22:01 | 0.01242 | 55.54286 | 40843 ft | 459 kts | 346° |
| 2026-04-15 22:02 | 0.07552 | 55.53116 | 40844 ft | 458 kts | 346° |
| 2026-04-15 22:02 | 0.13841 | 55.51949 | 40844 ft | 460 kts | 346° |
| 2026-04-15 22:03 | 0.20139 | 55.50782 | 40845 ft | 459 kts | 346° |
| 2026-04-15 22:03 | 0.26434 | 55.49615 | 40845 ft | 458 kts | 346° |
| 2026-04-15 22:04 | 0.32700 | 55.48453 | 40846 ft | 459 kts | 346° |
| 2026-04-15 22:04 | 0.39037 | 55.47277 | 40844 ft | 458 kts | 346° |
| 2026-04-15 22:05 | 0.45222 | 55.46132 | 40226 ft | 449 kts | 346° |
| 2026-04-15 22:05 | 0.48308 | 55.45560 | 39801 ft | 443 kts | 346° |
| 2026-04-15 22:05 | 0.51323 | 55.45000 | 39841 ft | 445 kts | 346° |
| 2026-04-15 22:06 | 0.57500 | 55.43854 | 39845 ft | 451 kts | 346° |
| 2026-04-15 22:06 | 0.63729 | 55.42698 | 39845 ft | 458 kts | 346° |
| 2026-04-15 22:07 | 0.70105 | 55.41515 | 39848 ft | 464 kts | 347° |
| 2026-04-15 22:07 | 0.76467 | 55.40335 | 39846 ft | 463 kts | 347° |
| 2026-04-15 22:08 | 0.82814 | 55.39159 | 39848 ft | 463 kts | 346° |
| 2026-04-15 22:08 | 0.89188 | 55.37977 | 39847 ft | 463 kts | 347° |
| 2026-04-15 22:09 | 0.95524 | 55.36802 | 39844 ft | 463 kts | 347° |
| 2026-04-15 22:09 | 1.01879 | 55.35623 | 39843 ft | 463 kts | 347° |
| 2026-04-15 22:10 | 1.08261 | 55.34439 | 39850 ft | 464 kts | 347° |
| 2026-04-15 22:10 | 1.14607 | 55.33262 | 39854 ft | 463 kts | 347° |
| 2026-04-15 22:11 | 1.20980 | 55.32080 | 39857 ft | 463 kts | 347° |
| 2026-04-15 22:11 | 1.27340 | 55.30900 | 39861 ft | 463 kts | 347° |
| 2026-04-15 22:12 | 1.33718 | 55.29739 | 39859 ft | 463 kts | 349° |
| 2026-04-15 22:12 | 1.40148 | 55.29197 | 39864 ft | 466 kts | 353° |
| 2026-04-15 22:13 | 1.46672 | 55.28727 | 39909 ft | 468 kts | 353° |
| 2026-04-15 22:13 | 1.49934 | 55.28492 | 40242 ft | 467 kts | 353° |
| 2026-04-15 22:13 | 1.53148 | 55.28260 | 40780 ft | 462 kts | 353° |
| 2026-04-15 22:14 | 1.59628 | 55.27789 | 40852 ft | 462 kts | 353° |
| 2026-04-15 22:14 | 1.66028 | 55.27324 | 40851 ft | 460 kts | 353° |
| 2026-04-15 22:15 | 1.72457 | 55.26855 | 40852 ft | 462 kts | 353° |
| 2026-04-15 22:15 | 1.78881 | 55.26387 | 40849 ft | 461 kts | 353° |
| 2026-04-15 22:16 | 1.85322 | 55.25917 | 40849 ft | 463 kts | 353° |
| 2026-04-15 22:16 | 1.91739 | 55.25450 | 40848 ft | 461 kts | 353° |
| 2026-04-15 22:17 | 1.98155 | 55.24982 | 40850 ft | 461 kts | 353° |
| 2026-04-15 22:17 | 2.04610 | 55.24511 | 40848 ft | 462 kts | 353° |
| 2026-04-15 22:18 | 2.11013 | 55.24044 | 40845 ft | 462 kts | 353° |
| 2026-04-15 22:18 | 2.17494 | 55.23571 | 40849 ft | 463 kts | 353° |
| 2026-04-15 22:19 | 2.23924 | 55.23103 | 40848 ft | 462 kts | 353° |
| 2026-04-15 22:19 | 2.30322 | 55.22636 | 40847 ft | 462 kts | 353° |
| 2026-04-15 22:20 | 2.36783 | 55.22164 | 40849 ft | 462 kts | 353° |
| 2026-04-15 22:20 | 2.43216 | 55.21695 | 40846 ft | 462 kts | 353° |
| 2026-04-15 22:21 | 2.49630 | 55.21227 | 40846 ft | 462 kts | 353° |
| 2026-04-15 22:21 | 2.56079 | 55.20756 | 40848 ft | 463 kts | 353° |
| 2026-04-15 22:22 | 2.62515 | 55.20287 | 40847 ft | 462 kts | 353° |
| 2026-04-15 22:22 | 2.68964 | 55.19815 | 40852 ft | 464 kts | 353° |
| 2026-04-15 22:23 | 2.75475 | 55.19340 | 40853 ft | 466 kts | 352° |
| 2026-04-15 22:23 | 2.81941 | 55.18868 | 40849 ft | 466 kts | 352° |
| 2026-04-15 22:24 | 2.88410 | 55.18396 | 40850 ft | 466 kts | 353° |
| 2026-04-15 22:24 | 2.94896 | 55.17922 | 40849 ft | 467 kts | 353° |
| 2026-04-15 22:25 | 3.01401 | 55.17447 | 40849 ft | 468 kts | 353° |
| 2026-04-15 22:25 | 3.07908 | 55.16972 | 40850 ft | 467 kts | 353° |
| 2026-04-15 22:26 | 3.14440 | 55.16495 | 40848 ft | 466 kts | 353° |
| 2026-04-15 22:26 | 3.20946 | 55.16019 | 40846 ft | 467 kts | 353° |
| 2026-04-15 22:27 | 3.27446 | 55.15545 | 40844 ft | 467 kts | 353° |
| 2026-04-15 22:27 | 3.33925 | 55.15071 | 40837 ft | 467 kts | 353° |
| 2026-04-15 22:28 | 3.40421 | 55.14596 | 40830 ft | 467 kts | 353° |
| 2026-04-15 22:28 | 3.46916 | 55.14121 | 40827 ft | 467 kts | 353° |
| 2026-04-15 22:29 | 3.53431 | 55.13645 | 40827 ft | 468 kts | 353° |
| 2026-04-15 22:29 | 3.59975 | 55.13166 | 40832 ft | 468 kts | 353° |
| 2026-04-15 22:30 | 3.66472 | 55.12691 | 40839 ft | 467 kts | 353° |
| 2026-04-15 22:30 | 3.72990 | 55.12215 | 40841 ft | 467 kts | 353° |
| 2026-04-15 22:31 | 3.79513 | 55.11737 | 40845 ft | 466 kts | 353° |
| 2026-04-15 22:31 | 3.85983 | 55.11264 | 40848 ft | 466 kts | 353° |
| 2026-04-15 22:32 | 3.92469 | 55.10789 | 40849 ft | 468 kts | 353° |
| 2026-04-15 22:32 | 3.99001 | 55.10311 | 40848 ft | 467 kts | 353° |
| 2026-04-15 22:33 | 4.05493 | 55.09836 | 40846 ft | 467 kts | 353° |
| 2026-04-15 22:33 | 4.12017 | 55.09359 | 40848 ft | 467 kts | 353° |
| 2026-04-15 22:34 | 4.18277 | 55.08901 | 40848 ft | 467 kts | 353° |
| 2026-04-15 22:34 | 4.24796 | 55.08424 | 40847 ft | 467 kts | 353° |
| 2026-04-15 22:35 | 4.31291 | 55.07948 | 40847 ft | 468 kts | 353° |
| 2026-04-15 22:35 | 4.37791 | 55.07473 | 40847 ft | 467 kts | 353° |
| 2026-04-15 22:36 | 4.44328 | 55.06994 | 40849 ft | 467 kts | 353° |
| 2026-04-15 22:36 | 4.50801 | 55.06520 | 40847 ft | 467 kts | 353° |
| 2026-04-15 22:37 | 4.57306 | 55.06044 | 40848 ft | 467 kts | 353° |
| 2026-04-15 22:37 | 4.63839 | 55.05566 | 40842 ft | 467 kts | 353° |
| 2026-04-15 22:38 | 4.70318 | 55.05091 | 40835 ft | 467 kts | 353° |
| 2026-04-15 22:38 | 4.76825 | 55.04614 | 40830 ft | 467 kts | 353° |
| 2026-04-15 22:39 | 4.83345 | 55.04136 | 40832 ft | 467 kts | 353° |
| 2026-04-15 22:39 | 4.89812 | 55.03663 | 40827 ft | 467 kts | 352° |
| 2026-04-15 22:40 | 4.96352 | 55.03183 | 40830 ft | 467 kts | 352° |
| 2026-04-15 22:40 | 5.02853 | 55.02707 | 40827 ft | 467 kts | 352° |
| 2026-04-15 22:41 | 5.12608 | 55.01991 | 40827 ft | 467 kts | 352° |
| 2026-04-15 22:41 | 5.19133 | 55.01512 | 40826 ft | 467 kts | 352° |
| 2026-04-15 22:42 | 5.25609 | 55.01037 | 40827 ft | 467 kts | 352° |
| 2026-04-15 22:42 | 5.32155 | 55.00557 | 40826 ft | 468 kts | 352° |
| 2026-04-15 22:43 | 5.38651 | 55.00080 | 40826 ft | 468 kts | 352° |
| 2026-04-15 22:43 | 5.45183 | 54.99895 | 40824 ft | 469 kts | 357° |
| 2026-04-15 22:44 | 5.51783 | 54.99944 | 40827 ft | 470 kts | 356° |
| 2026-04-15 22:44 | 5.58323 | 54.99971 | 40827 ft | 471 kts | 356° |
| 2026-04-15 22:45 | 5.64906 | 54.99985 | 40830 ft | 471 kts | 356° |
| 2026-04-15 22:45 | 5.71512 | 54.99992 | 40835 ft | 471 kts | 356° |
| 2026-04-15 22:46 | 5.78066 | 54.99996 | 40841 ft | 470 kts | 356° |
| 2026-04-15 22:46 | 5.84637 | 54.99998 | 40847 ft | 470 kts | 356° |
| 2026-04-15 22:47 | 5.91237 | 54.99999 | 40848 ft | 471 kts | 356° |
| 2026-04-15 22:47 | 5.97825 | 54.99999 | 40848 ft | 472 kts | 356° |
| 2026-04-15 22:48 | 6.04372 | 55.00000 | 40848 ft | 471 kts | 356° |
| 2026-04-15 22:48 | 6.10952 | 55.00000 | 40846 ft | 471 kts | 356° |
| 2026-04-15 22:49 | 6.17545 | 55.00000 | 40848 ft | 471 kts | 356° |
| 2026-04-15 22:49 | 6.24124 | 55.00000 | 40846 ft | 471 kts | 356° |
| 2026-04-15 22:50 | 6.30714 | 55.00000 | 40846 ft | 471 kts | 356° |
| 2026-04-15 22:50 | 6.37261 | 55.00000 | 40848 ft | 471 kts | 356° |
| 2026-04-15 22:51 | 6.43811 | 55.00000 | 40846 ft | 470 kts | 356° |
| 2026-04-15 22:51 | 6.50375 | 55.00000 | 40847 ft | 471 kts | 356° |
| 2026-04-15 22:52 | 6.57007 | 55.00000 | 40845 ft | 471 kts | 356° |
| 2026-04-15 22:52 | 6.63583 | 55.00000 | 40842 ft | 470 kts | 356° |
| 2026-04-15 22:53 | 6.70144 | 55.00000 | 40843 ft | 471 kts | 356° |
| 2026-04-15 22:53 | 6.76725 | 55.00000 | 40843 ft | 470 kts | 356° |
| 2026-04-15 22:54 | 6.83268 | 55.00000 | 40841 ft | 469 kts | 356° |
| 2026-04-15 22:54 | 6.89806 | 55.00000 | 40834 ft | 470 kts | 356° |
| 2026-04-15 22:55 | 6.96395 | 55.00000 | 40827 ft | 470 kts | 356° |
| 2026-04-15 22:55 | 7.02982 | 55.00000 | 40828 ft | 470 kts | 356° |
| 2026-04-15 22:56 | 7.09504 | 55.00000 | 40831 ft | 470 kts | 356° |
| 2026-04-15 22:56 | 7.16124 | 55.00000 | 40829 ft | 472 kts | 356° |
| 2026-04-15 22:57 | 7.22728 | 55.00000 | 40826 ft | 472 kts | 356° |
| 2026-04-15 22:57 | 7.29287 | 55.00000 | 40825 ft | 471 kts | 356° |
| 2026-04-15 22:58 | 7.35851 | 55.00000 | 40829 ft | 470 kts | 356° |
| 2026-04-15 22:58 | 7.42458 | 55.00000 | 40836 ft | 471 kts | 356° |
| 2026-04-15 22:59 | 7.48994 | 55.00000 | 40838 ft | 471 kts | 356° |
| 2026-04-15 22:59 | 7.55599 | 55.00000 | 40844 ft | 471 kts | 356° |
| 2026-04-15 23:00 | 7.62157 | 55.00000 | 40848 ft | 471 kts | 356° |
| 2026-04-15 23:00 | 7.68755 | 55.00000 | 40848 ft | 472 kts | 356° |
| 2026-04-15 23:01 | 7.75325 | 55.00000 | 40848 ft | 472 kts | 356° |
| 2026-04-15 23:01 | 7.81906 | 55.00000 | 40847 ft | 472 kts | 356° |
| 2026-04-15 23:02 | 7.88493 | 55.00000 | 40849 ft | 472 kts | 356° |
| 2026-04-15 23:02 | 7.95110 | 55.00000 | 40848 ft | 473 kts | 356° |
| 2026-04-15 23:03 | 8.01689 | 55.00000 | 40848 ft | 471 kts | 356° |
| 2026-04-15 23:03 | 8.08290 | 55.00000 | 40848 ft | 473 kts | 356° |
| 2026-04-15 23:04 | 8.14873 | 55.00000 | 40850 ft | 473 kts | 356° |
| 2026-04-15 23:04 | 8.21516 | 55.00000 | 40845 ft | 473 kts | 356° |
| 2026-04-15 23:05 | 8.28130 | 55.00000 | 40847 ft | 472 kts | 356° |
| 2026-04-15 23:05 | 8.34728 | 55.00000 | 40850 ft | 474 kts | 356° |
| 2026-04-15 23:06 | 8.41335 | 55.00000 | 40848 ft | 472 kts | 356° |
| 2026-04-15 23:06 | 8.47964 | 55.00000 | 40847 ft | 474 kts | 356° |
| 2026-04-15 23:07 | 8.54574 | 55.00000 | 40846 ft | 474 kts | 356° |
| 2026-04-15 23:07 | 8.61203 | 55.00000 | 40848 ft | 473 kts | 356° |
| 2026-04-15 23:08 | 8.67802 | 55.00000 | 40847 ft | 473 kts | 356° |
| 2026-04-15 23:08 | 8.74425 | 55.00000 | 40849 ft | 474 kts | 356° |
| 2026-04-15 23:09 | 8.81041 | 55.00000 | 40846 ft | 472 kts | 356° |
| 2026-04-15 23:09 | 8.87637 | 55.00000 | 40849 ft | 475 kts | 356° |
| 2026-04-15 23:10 | 8.94240 | 55.00000 | 40845 ft | 473 kts | 356° |
| 2026-04-15 23:10 | 9.00860 | 55.00000 | 40836 ft | 474 kts | 356° |
| 2026-04-15 23:11 | 9.07481 | 55.00000 | 40825 ft | 474 kts | 356° |
| 2026-04-15 23:11 | 9.14114 | 55.00000 | 40831 ft | 475 kts | 356° |
| 2026-04-15 23:12 | 9.20751 | 55.00000 | 40828 ft | 473 kts | 356° |
| 2026-04-15 23:12 | 9.27335 | 55.00000 | 40839 ft | 473 kts | 356° |
| 2026-04-15 23:13 | 9.33937 | 55.00000 | 40837 ft | 472 kts | 356° |
| 2026-04-15 23:13 | 9.40568 | 55.00000 | 40853 ft | 473 kts | 356° |
| 2026-04-15 23:14 | 9.47162 | 55.00000 | 40853 ft | 473 kts | 356° |
| 2026-04-15 23:14 | 9.53756 | 55.00000 | 40860 ft | 472 kts | 355° |
| 2026-04-15 23:15 | 9.60334 | 55.00000 | 40859 ft | 472 kts | 356° |
| 2026-04-15 23:15 | 9.66908 | 55.00000 | 40851 ft | 472 kts | 355° |
| 2026-04-15 23:16 | 9.73547 | 55.00000 | 40844 ft | 473 kts | 355° |
| 2026-04-15 23:16 | 9.80141 | 55.00000 | 40844 ft | 471 kts | 355° |
| 2026-04-15 23:17 | 9.86698 | 55.00000 | 40843 ft | 469 kts | 355° |
| 2026-04-15 23:17 | 9.93240 | 55.00000 | 40847 ft | 471 kts | 355° |
| 2026-04-15 23:18 | 9.99828 | 55.00000 | 40844 ft | 470 kts | 355° |
| 2026-04-15 23:18 | 10.06407 | 55.00000 | 40850 ft | 470 kts | 355° |
| 2026-04-15 23:19 | 10.12950 | 55.00000 | 40846 ft | 470 kts | 355° |
| 2026-04-15 23:19 | 10.19515 | 55.00000 | 40844 ft | 470 kts | 355° |
| 2026-04-15 23:20 | 10.26078 | 55.00000 | 40846 ft | 469 kts | 355° |
| 2026-04-15 23:20 | 10.32634 | 55.00000 | 40847 ft | 470 kts | 355° |
| 2026-04-15 23:21 | 10.39152 | 55.00000 | 40847 ft | 468 kts | 355° |
| 2026-04-15 23:21 | 10.45713 | 55.00000 | 40845 ft | 468 kts | 355° |
| 2026-04-15 23:22 | 10.52237 | 55.00000 | 40849 ft | 467 kts | 355° |
| 2026-04-15 23:22 | 10.58808 | 55.00000 | 40853 ft | 470 kts | 355° |
| 2026-04-15 23:23 | 10.65326 | 55.00000 | 40848 ft | 469 kts | 355° |
| 2026-04-15 23:23 | 10.71886 | 55.00000 | 40848 ft | 468 kts | 355° |
| 2026-04-15 23:24 | 10.78422 | 55.00000 | 40844 ft | 468 kts | 355° |
| 2026-04-15 23:24 | 10.84947 | 55.00001 | 40853 ft | 466 kts | 354° |
| 2026-04-15 23:25 | 10.91434 | 55.00000 | 40851 ft | 466 kts | 355° |
| 2026-04-15 23:25 | 10.97979 | 55.00000 | 40849 ft | 466 kts | 354° |
| 2026-04-15 23:26 | 11.04466 | 55.00000 | 40849 ft | 467 kts | 355° |
| 2026-04-15 23:26 | 11.11007 | 55.00000 | 40852 ft | 468 kts | 355° |
| 2026-04-15 23:27 | 11.17518 | 55.00000 | 40855 ft | 467 kts | 354° |
| 2026-04-15 23:27 | 11.22973 | 55.00000 | 40864 ft | 468 kts | 355° |
| 2026-04-15 23:28 | 11.30577 | 55.00000 | 40865 ft | 466 kts | 355° |
| 2026-04-15 23:28 | 11.37113 | 55.00000 | 40865 ft | 468 kts | 355° |
| 2026-04-15 23:29 | 11.43659 | 55.00000 | 40864 ft | 469 kts | 355° |
| 2026-04-15 23:29 | 11.50213 | 55.00000 | 40867 ft | 469 kts | 355° |
| 2026-04-15 23:30 | 11.56757 | 55.00000 | 40866 ft | 470 kts | 354° |
| 2026-04-15 23:30 | 11.63345 | 55.00000 | 40865 ft | 471 kts | 354° |
| 2026-04-15 23:31 | 11.69925 | 55.00000 | 40867 ft | 470 kts | 354° |
| 2026-04-15 23:31 | 11.76475 | 55.00000 | 40866 ft | 470 kts | 355° |
| 2026-04-15 23:32 | 11.83017 | 55.00000 | 40869 ft | 469 kts | 354° |
| 2026-04-15 23:32 | 11.89600 | 55.00000 | 40868 ft | 471 kts | 354° |
| 2026-04-15 23:33 | 11.96219 | 55.00000 | 40864 ft | 472 kts | 354° |
| 2026-04-15 23:33 | 12.02798 | 55.00332 | 40876 ft | 477 kts | 1° |
| 2026-04-15 23:34 | 12.09447 | 55.01161 | 40873 ft | 478 kts | 2° |
| 2026-04-15 23:36 | 12.32675 | 55.04063 | 40862 ft | 480 kts | 2° |
| 2026-04-15 23:36 | 12.39321 | 55.04893 | 40864 ft | 479 kts | 2° |
| 2026-04-15 23:37 | 12.45992 | 55.05724 | 40869 ft | 480 kts | 2° |
| 2026-04-15 23:37 | 12.52625 | 55.06552 | 40870 ft | 480 kts | 2° |
| 2026-04-15 23:38 | 12.59306 | 55.07386 | 40858 ft | 481 kts | 2° |
| 2026-04-15 23:38 | 12.65977 | 55.08219 | 40853 ft | 481 kts | 2° |
| 2026-04-15 23:39 | 12.72656 | 55.09053 | 40874 ft | 482 kts | 2° |
| 2026-04-15 23:39 | 12.79359 | 55.09891 | 40861 ft | 481 kts | 2° |
| 2026-04-15 23:40 | 12.86058 | 55.10729 | 40869 ft | 482 kts | 2° |
| 2026-04-15 23:40 | 12.92726 | 55.11563 | 40866 ft | 482 kts | 2° |
| 2026-04-15 23:41 | 12.99436 | 55.12403 | 40866 ft | 483 kts | 2° |
| 2026-04-15 23:41 | 13.06151 | 55.13245 | 40872 ft | 483 kts | 2° |
| 2026-04-15 23:42 | 13.12831 | 55.14082 | 40865 ft | 483 kts | 2° |
| 2026-04-15 23:42 | 13.19522 | 55.14921 | 40867 ft | 482 kts | 2° |
| 2026-04-15 23:43 | 13.26224 | 55.15762 | 40864 ft | 484 kts | 2° |
| 2026-04-15 23:43 | 13.32914 | 55.16602 | 40867 ft | 482 kts | 2° |
| 2026-04-15 23:44 | 13.39622 | 55.17445 | 40870 ft | 483 kts | 2° |
| 2026-04-15 23:44 | 13.46337 | 55.18288 | 40867 ft | 482 kts | 2° |
| 2026-04-15 23:45 | 13.52999 | 55.19127 | 40873 ft | 481 kts | 2° |
| 2026-04-15 23:45 | 13.59650 | 55.19963 | 40870 ft | 483 kts | 2° |
| 2026-04-15 23:46 | 13.66368 | 55.20809 | 40870 ft | 483 kts | 2° |
| 2026-04-15 23:46 | 13.73020 | 55.21647 | 40869 ft | 481 kts | 2° |
| 2026-04-15 23:47 | 13.79715 | 55.22490 | 40871 ft | 484 kts | 2° |
| 2026-04-15 23:47 | 13.86402 | 55.23334 | 40869 ft | 482 kts | 2° |
| 2026-04-15 23:48 | 13.93031 | 55.24167 | 40870 ft | 481 kts | 2° |
| 2026-04-15 23:48 | 13.99687 | 55.24991 | 40869 ft | 481 kts | 1° |
| 2026-04-15 23:49 | 14.06355 | 55.25818 | 40870 ft | 480 kts | 1° |
| 2026-04-15 23:49 | 14.13012 | 55.26643 | 40868 ft | 482 kts | 1° |
| 2026-04-15 23:50 | 14.19706 | 55.27474 | 40872 ft | 483 kts | 1° |
| 2026-04-15 23:50 | 14.26401 | 55.28306 | 40866 ft | 483 kts | 1° |
| 2026-04-15 23:51 | 14.36383 | 55.29547 | 40872 ft | 483 kts | 1° |
| 2026-04-15 23:51 | 14.43106 | 55.30384 | 40871 ft | 483 kts | 1° |
| 2026-04-15 23:52 | 14.49742 | 55.31210 | 40869 ft | 482 kts | 1° |
| 2026-04-15 23:52 | 14.56453 | 55.32046 | 40865 ft | 484 kts | 1° |
| 2026-04-15 23:53 | 14.63125 | 55.32879 | 40858 ft | 481 kts | 1° |
| 2026-04-15 23:53 | 14.69792 | 55.33709 | 40863 ft | 483 kts | 1° |
| 2026-04-15 23:54 | 14.76510 | 55.34548 | 40862 ft | 485 kts | 1° |
| 2026-04-15 23:54 | 14.83207 | 55.35385 | 40862 ft | 483 kts | 1° |
| 2026-04-15 23:55 | 14.89911 | 55.36223 | 40859 ft | 484 kts | 1° |
| 2026-04-15 23:55 | 14.96577 | 55.37057 | 40857 ft | 483 kts | 1° |
| 2026-04-15 23:56 | 15.03286 | 55.37896 | 40853 ft | 483 kts | 1° |
| 2026-04-15 23:56 | 15.09995 | 55.38736 | 40859 ft | 484 kts | 1° |
| 2026-04-15 23:57 | 15.16690 | 55.39575 | 40854 ft | 485 kts | 1° |
| 2026-04-15 23:57 | 15.23393 | 55.40408 | 40855 ft | 483 kts | 1° |
| 2026-04-15 23:58 | 15.30068 | 55.41230 | 40856 ft | 484 kts | 1° |
| 2026-04-15 23:58 | 15.36777 | 55.42056 | 40858 ft | 485 kts | 1° |
| 2026-04-15 23:59 | 15.43483 | 55.42884 | 40856 ft | 483 kts | 1° |
| 2026-04-15 23:59 | 15.50190 | 55.43711 | 40859 ft | 486 kts | 1° |
| 2026-04-16 00:00 | 15.56898 | 55.44540 | 40858 ft | 485 kts | 1° |
| 2026-04-16 00:00 | 15.63642 | 55.45374 | 40859 ft | 485 kts | 1° |
| 2026-04-16 00:01 | 15.70315 | 55.46200 | 40867 ft | 484 kts | 1° |
| 2026-04-16 00:01 | 15.77004 | 55.47028 | 40878 ft | 484 kts | 1° |
| 2026-04-16 00:02 | 15.83724 | 55.47861 | 40884 ft | 484 kts | 1° |
| 2026-04-16 00:02 | 15.90433 | 55.48693 | 40886 ft | 484 kts | 1° |
| 2026-04-16 00:03 | 15.97131 | 55.49523 | 40888 ft | 487 kts | 1° |
| 2026-04-16 00:03 | 16.03892 | 55.50362 | 40886 ft | 487 kts | 1° |
| 2026-04-16 00:04 | 16.10651 | 55.51203 | 40886 ft | 485 kts | 1° |
| 2026-04-16 00:04 | 16.17404 | 55.52042 | 40882 ft | 485 kts | 1° |
| 2026-04-16 00:05 | 16.24149 | 55.52880 | 40880 ft | 487 kts | 1° |
| 2026-04-16 00:05 | 16.30858 | 55.53717 | 40882 ft | 484 kts | 1° |
| 2026-04-16 00:06 | 16.37614 | 55.54558 | 40882 ft | 487 kts | 1° |
| 2026-04-16 00:06 | 16.44383 | 55.55402 | 40882 ft | 485 kts | 1° |
| 2026-04-16 00:07 | 16.51082 | 55.56238 | 40880 ft | 486 kts | 1° |
| 2026-04-16 00:07 | 16.57788 | 55.57075 | 40876 ft | 484 kts | 1° |
| 2026-04-16 00:08 | 16.64480 | 55.57912 | 40877 ft | 482 kts | 1° |
| 2026-04-16 00:08 | 16.71183 | 55.58749 | 40876 ft | 485 kts | 1° |
| 2026-04-16 00:09 | 16.77908 | 55.59590 | 40876 ft | 485 kts | 1° |
| 2026-04-16 00:09 | 16.84589 | 55.60427 | 40877 ft | 484 kts | 1° |
| 2026-04-16 00:10 | 16.91312 | 55.61271 | 40876 ft | 484 kts | 1° |
| 2026-04-16 00:10 | 16.98025 | 55.62125 | 40876 ft | 483 kts | 1° |
| 2026-04-16 00:11 | 17.04693 | 55.62972 | 40879 ft | 484 kts | 1° |
| 2026-04-16 00:11 | 17.11409 | 55.63826 | 40878 ft | 485 kts | 1° |
| 2026-04-16 00:12 | 17.18106 | 55.64678 | 40875 ft | 484 kts | 1° |
| 2026-04-16 00:12 | 17.24851 | 55.65537 | 40862 ft | 485 kts | 1° |
| 2026-04-16 00:13 | 17.31584 | 55.66395 | 40866 ft | 485 kts | 1° |
| 2026-04-16 00:13 | 17.38284 | 55.67249 | 40863 ft | 484 kts | 1° |
| 2026-04-16 00:14 | 17.45001 | 55.68106 | 40864 ft | 485 kts | 1° |
| 2026-04-16 00:14 | 17.51706 | 55.68962 | 40865 ft | 485 kts | 1° |
| 2026-04-16 00:15 | 17.58409 | 55.69819 | 40863 ft | 485 kts | 1° |
| 2026-04-16 00:15 | 17.65177 | 55.70684 | 40868 ft | 486 kts | 1° |
| 2026-04-16 00:16 | 17.71875 | 55.71541 | 40866 ft | 486 kts | 1° |
| 2026-04-16 00:16 | 17.78626 | 55.72406 | 40873 ft | 485 kts | 1° |
| 2026-04-16 00:17 | 17.85333 | 55.73266 | 40884 ft | 484 kts | 1° |
| 2026-04-16 00:17 | 17.92021 | 55.74123 | 40901 ft | 487 kts | 1° |
| 2026-04-16 00:18 | 17.98765 | 55.75073 | 40912 ft | 489 kts | 7° |
| 2026-04-16 00:18 | 18.05403 | 55.76775 | 40928 ft | 491 kts | 8° |
| 2026-04-16 00:19 | 18.12102 | 55.78554 | 40921 ft | 493 kts | 8° |
| 2026-04-16 00:19 | 18.18762 | 55.80321 | 40923 ft | 493 kts | 9° |
| 2026-04-16 00:20 | 18.25411 | 55.82086 | 40923 ft | 491 kts | 9° |
| 2026-04-16 00:20 | 18.32090 | 55.83857 | 40923 ft | 495 kts | 9° |
| 2026-04-16 00:21 | 18.38776 | 55.85632 | 40922 ft | 495 kts | 9° |
| 2026-04-16 00:21 | 18.45480 | 55.87414 | 40920 ft | 494 kts | 9° |
| 2026-04-16 00:22 | 18.52196 | 55.89199 | 40914 ft | 493 kts | 9° |
| 2026-04-16 00:22 | 18.58864 | 55.90973 | 40903 ft | 494 kts | 9° |
| 2026-04-16 00:23 | 18.65555 | 55.92754 | 40903 ft | 494 kts | 8° |
| 2026-04-16 00:23 | 18.72212 | 55.94529 | 40901 ft | 493 kts | 9° |
| 2026-04-16 00:24 | 18.78944 | 55.96323 | 40903 ft | 495 kts | 9° |
| 2026-04-16 00:24 | 18.85612 | 55.98103 | 40894 ft | 495 kts | 9° |
| 2026-04-16 00:25 | 18.92300 | 55.99890 | 40899 ft | 495 kts | 8° |
| 2026-04-16 00:25 | 18.98997 | 56.01680 | 40896 ft | 496 kts | 9° |
| 2026-04-16 00:26 | 19.05677 | 56.03469 | 40903 ft | 495 kts | 9° |
| 2026-04-16 00:26 | 19.12402 | 56.05271 | 40906 ft | 495 kts | 8° |
| 2026-04-16 00:27 | 19.19143 | 56.07077 | 40906 ft | 499 kts | 9° |
| 2026-04-16 00:27 | 19.24760 | 56.08585 | 40906 ft | 497 kts | 9° |
| 2026-04-16 00:28 | 19.32548 | 56.10678 | 40907 ft | 495 kts | 9° |
| 2026-04-16 00:28 | 19.39346 | 56.12504 | 40906 ft | 499 kts | 9° |
| 2026-04-16 00:29 | 19.46066 | 56.14314 | 40907 ft | 495 kts | 8° |
| 2026-04-16 00:29 | 19.52755 | 56.16114 | 40909 ft | 497 kts | 9° |
| 2026-04-16 00:30 | 19.59467 | 56.17923 | 40907 ft | 497 kts | 9° |
| 2026-04-16 00:30 | 19.66198 | 56.19739 | 40908 ft | 497 kts | 9° |
| 2026-04-16 00:31 | 19.72920 | 56.21554 | 40908 ft | 497 kts | 9° |
| 2026-04-16 00:31 | 19.79687 | 56.23382 | 40903 ft | 500 kts | 9° |
| 2026-04-16 00:32 | 19.86473 | 56.25218 | 40905 ft | 498 kts | 9° |
| 2026-04-16 00:32 | 19.93172 | 56.27031 | 40905 ft | 499 kts | 9° |
| 2026-04-16 00:33 | 19.99955 | 56.28075 | 40906 ft | 485 kts | 355° |
| 2026-04-16 00:33 | 20.06734 | 56.28110 | 40909 ft | 487 kts | 354° |
| 2026-04-16 00:34 | 20.13554 | 56.28124 | 40902 ft | 485 kts | 354° |
| 2026-04-16 00:34 | 20.20279 | 56.28138 | 40906 ft | 487 kts | 354° |
| 2026-04-16 00:35 | 20.27112 | 56.28153 | 40904 ft | 486 kts | 354° |
| 2026-04-16 00:35 | 20.33866 | 56.28169 | 40904 ft | 487 kts | 354° |
| 2026-04-16 00:36 | 20.40706 | 56.28186 | 40901 ft | 487 kts | 354° |
| 2026-04-16 00:36 | 20.47453 | 56.28202 | 40907 ft | 485 kts | 354° |
| 2026-04-16 00:37 | 20.54256 | 56.28215 | 40906 ft | 486 kts | 352° |
| 2026-04-16 00:37 | 20.60923 | 56.27470 | 40908 ft | 477 kts | 346° |
| 2026-04-16 00:38 | 20.67549 | 56.26505 | 40906 ft | 478 kts | 346° |
| 2026-04-16 00:38 | 20.74183 | 56.25540 | 40904 ft | 480 kts | 346° |
| 2026-04-16 00:39 | 20.80810 | 56.24578 | 40905 ft | 478 kts | 346° |
| 2026-04-16 00:39 | 20.87374 | 56.23625 | 40905 ft | 477 kts | 346° |
| 2026-04-16 00:40 | 20.93974 | 56.22666 | 40909 ft | 476 kts | 346° |
| 2026-04-16 00:40 | 21.00564 | 56.21708 | 40899 ft | 480 kts | 346° |
| 2026-04-16 00:41 | 21.07216 | 56.20741 | 40910 ft | 477 kts | 346° |
| 2026-04-16 00:41 | 21.13803 | 56.19781 | 40889 ft | 480 kts | 346° |
| 2026-04-16 00:42 | 21.20427 | 56.18817 | 40897 ft | 477 kts | 346° |
| 2026-04-16 00:42 | 21.27025 | 56.17855 | 40886 ft | 477 kts | 346° |
| 2026-04-16 00:43 | 21.33663 | 56.16882 | 40890 ft | 478 kts | 346° |
| 2026-04-16 00:43 | 21.40220 | 56.15921 | 40885 ft | 474 kts | 346° |
| 2026-04-16 00:44 | 21.46817 | 56.14952 | 40890 ft | 477 kts | 346° |
| 2026-04-16 00:44 | 21.53405 | 56.13984 | 40890 ft | 475 kts | 346° |
| 2026-04-16 00:45 | 21.59992 | 56.13014 | 40885 ft | 478 kts | 346° |
| 2026-04-16 00:45 | 21.66573 | 56.12046 | 40900 ft | 477 kts | 346° |
| 2026-04-16 00:46 | 21.73176 | 56.11073 | 40902 ft | 478 kts | 346° |
| 2026-04-16 00:46 | 21.79789 | 56.10097 | 40902 ft | 477 kts | 347° |
| 2026-04-16 00:47 | 21.86361 | 56.09127 | 40901 ft | 477 kts | 347° |
| 2026-04-16 00:47 | 21.92957 | 56.08153 | 40905 ft | 477 kts | 346° |
| 2026-04-16 00:48 | 21.99508 | 56.07184 | 40912 ft | 474 kts | 347° |
| 2026-04-16 00:48 | 22.06122 | 56.06205 | 40902 ft | 476 kts | 347° |
| 2026-04-16 00:50 | 22.32418 | 56.02309 | 40898 ft | 474 kts | 347° |
| 2026-04-16 00:51 | 22.38963 | 56.01337 | 40905 ft | 473 kts | 347° |
| 2026-04-16 00:51 | 22.45509 | 56.00371 | 40895 ft | 472 kts | 347° |
| 2026-04-16 00:52 | 22.52011 | 55.99411 | 40905 ft | 474 kts | 347° |
| 2026-04-16 00:52 | 22.58584 | 55.98439 | 40910 ft | 473 kts | 347° |
| 2026-04-16 00:53 | 22.65144 | 55.97469 | 40905 ft | 472 kts | 348° |
| 2026-04-16 00:53 | 22.71631 | 55.96508 | 40902 ft | 472 kts | 347° |
| 2026-04-16 00:54 | 22.78170 | 55.95539 | 40912 ft | 472 kts | 347° |
| 2026-04-16 00:54 | 22.84697 | 55.94568 | 40911 ft | 471 kts | 348° |
| 2026-04-16 00:55 | 22.91216 | 55.93592 | 40915 ft | 469 kts | 347° |
| 2026-04-16 00:55 | 22.97663 | 55.92627 | 40912 ft | 467 kts | 348° |
| 2026-04-16 00:56 | 23.04137 | 55.91656 | 40905 ft | 469 kts | 348° |
| 2026-04-16 00:56 | 23.10616 | 55.90681 | 40906 ft | 466 kts | 348° |
| 2026-04-16 00:57 | 23.20308 | 55.89218 | 40923 ft | 468 kts | 348° |
| 2026-04-16 00:58 | 23.26773 | 55.88243 | 40931 ft | 468 kts | 348° |
| 2026-04-16 00:58 | 23.33236 | 55.87266 | 40926 ft | 467 kts | 348° |
| 2026-04-16 00:59 | 23.39698 | 55.86289 | 40936 ft | 467 kts | 348° |
| 2026-04-16 00:59 | 23.46113 | 55.85318 | 40915 ft | 464 kts | 348° |
| 2026-04-16 01:00 | 23.52484 | 55.84353 | 40212 ft | 462 kts | 348° |
| 2026-04-16 01:00 | 23.55705 | 55.83863 | 39240 ft | 468 kts | 348° |
| 2026-04-16 01:00 | 23.58936 | 55.83371 | 38372 ft | 469 kts | 349° |
| 2026-04-16 01:00 | 23.62161 | 55.82881 | 37607 ft | 469 kts | 349° |
| 2026-04-16 01:01 | 23.65418 | 55.82385 | 36836 ft | 468 kts | 349° |
| 2026-04-16 01:01 | 23.68629 | 55.81926 | 36092 ft | 468 kts | 352° |
| 2026-04-16 01:01 | 23.71878 | 55.81876 | 35329 ft | 471 kts | 0° |
| 2026-04-16 01:01 | 23.75133 | 55.82173 | 34535 ft | 472 kts | 2° |
| 2026-04-16 01:02 | 23.78446 | 55.82520 | 33703 ft | 472 kts | 2° |
| 2026-04-16 01:02 | 23.81686 | 55.82861 | 32938 ft | 472 kts | 2° |
| 2026-04-16 01:02 | 23.84975 | 55.83207 | 32100 ft | 473 kts | 3° |
| 2026-04-16 01:02 | 23.88229 | 55.83549 | 31248 ft | 475 kts | 2° |
| 2026-04-16 01:03 | 23.91557 | 55.83898 | 30496 ft | 473 kts | 3° |
| 2026-04-16 01:03 | 23.94779 | 55.84237 | 30025 ft | 466 kts | 2° |
| 2026-04-16 01:03 | 23.98000 | 55.84576 | 29517 ft | 461 kts | 2° |
| 2026-04-16 01:03 | 24.01176 | 55.84909 | 28965 ft | 456 kts | 3° |
| 2026-04-16 01:04 | 24.04360 | 55.85242 | 28400 ft | 460 kts | 3° |
| 2026-04-16 01:04 | 24.07593 | 55.85580 | 27821 ft | 469 kts | 3° |
| 2026-04-16 01:04 | 24.10833 | 55.85920 | 27246 ft | 467 kts | 3° |
| 2026-04-16 01:04 | 24.14053 | 55.86259 | 26742 ft | 461 kts | 3° |
| 2026-04-16 01:05 | 24.17257 | 55.86596 | 26259 ft | 454 kts | 3° |
| 2026-04-16 01:05 | 24.20368 | 55.86923 | 25705 ft | 451 kts | 3° |
| 2026-04-16 01:05 | 24.23474 | 55.87249 | 24957 ft | 448 kts | 3° |
| 2026-04-16 01:05 | 24.26583 | 55.87576 | 24160 ft | 446 kts | 3° |
| 2026-04-16 01:06 | 24.29687 | 55.87902 | 23419 ft | 443 kts | 3° |
| 2026-04-16 01:06 | 24.32709 | 55.88332 | 22728 ft | 440 kts | 8° |
| 2026-04-16 01:06 | 24.35665 | 55.89208 | 21978 ft | 441 kts | 19° |
| 2026-04-16 01:06 | 24.38428 | 55.90622 | 21236 ft | 440 kts | 29° |
| 2026-04-16 01:07 | 24.40949 | 55.92556 | 20534 ft | 438 kts | 39° |
| 2026-04-16 01:07 | 24.43181 | 55.94787 | 19821 ft | 435 kts | 43° |
| 2026-04-16 01:07 | 24.45453 | 55.96965 | 19152 ft | 431 kts | 35° |
| 2026-04-16 01:07 | 24.47965 | 55.98673 | 18468 ft | 426 kts | 25° |
| 2026-04-16 01:08 | 24.50709 | 55.99876 | 17777 ft | 421 kts | 14° |
| 2026-04-16 01:08 | 24.53522 | 56.00508 | 17135 ft | 414 kts | 4° |
| 2026-04-16 01:08 | 24.56390 | 56.00579 | 16543 ft | 405 kts | 353° |
| 2026-04-16 01:08 | 24.59138 | 56.00115 | 15966 ft | 396 kts | 342° |
| 2026-04-16 01:09 | 24.61714 | 55.99166 | 15411 ft | 386 kts | 333° |
| 2026-04-16 01:09 | 24.64106 | 55.97869 | 14818 ft | 380 kts | 329° |
| 2026-04-16 01:09 | 24.66430 | 55.96521 | 14262 ft | 374 kts | 329° |
| 2026-04-16 01:09 | 24.68681 | 55.95168 | 14034 ft | 359 kts | 328° |
| 2026-04-16 01:10 | 24.70808 | 55.93868 | 13902 ft | 343 kts | 328° |
| 2026-04-16 01:10 | 24.72843 | 55.92594 | 13799 ft | 326 kts | 327° |
| 2026-04-16 01:10 | 24.74754 | 55.91366 | 13756 ft | 310 kts | 326° |
| 2026-04-16 01:10 | 24.76552 | 55.90181 | 13709 ft | 295 kts | 326° |
| 2026-04-16 01:11 | 24.78288 | 55.89021 | 13488 ft | 288 kts | 326° |
| 2026-04-16 01:11 | 24.79974 | 55.87886 | 13118 ft | 287 kts | 326° |
| 2026-04-16 01:11 | 24.81690 | 55.86728 | 12687 ft | 287 kts | 326° |
| 2026-04-16 01:11 | 24.83380 | 55.85590 | 12362 ft | 284 kts | 326° |
| 2026-04-16 01:12 | 24.85071 | 55.84449 | 12021 ft | 281 kts | 326° |
| 2026-04-16 01:12 | 24.86722 | 55.83335 | 11671 ft | 279 kts | 326° |
| 2026-04-16 01:12 | 24.88370 | 55.82223 | 11329 ft | 277 kts | 326° |
| 2026-04-16 01:12 | 24.90011 | 55.81115 | 10990 ft | 275 kts | 326° |
| 2026-04-16 01:13 | 24.91641 | 55.80014 | 10612 ft | 274 kts | 326° |
| 2026-04-16 01:13 | 24.93268 | 55.78915 | 10290 ft | 271 kts | 326° |
| 2026-04-16 01:13 | 24.94861 | 55.77839 | 9960 ft | 269 kts | 326° |
| 2026-04-16 01:13 | 24.96455 | 55.76762 | 9601 ft | 268 kts | 326° |
| 2026-04-16 01:14 | 24.98043 | 55.75688 | 9266 ft | 265 kts | 326° |
| 2026-04-16 01:14 | 24.99612 | 55.74627 | 8943 ft | 262 kts | 326° |
| 2026-04-16 01:14 | 25.01155 | 55.73583 | 8579 ft | 262 kts | 326° |
| 2026-04-16 01:14 | 25.02706 | 55.72533 | 8224 ft | 260 kts | 326° |
| 2026-04-16 01:15 | 25.04152 | 55.71357 | 7873 ft | 255 kts | 313° |
| 2026-04-16 01:15 | 25.05347 | 55.69971 | 7835 ft | 241 kts | 312° |
| 2026-04-16 01:15 | 25.06477 | 55.68679 | 7770 ft | 228 kts | 311° |
| 2026-04-16 01:15 | 25.07501 | 55.67435 | 7774 ft | 211 kts | 309° |
| 2026-04-16 01:16 | 25.08399 | 55.66238 | 7674 ft | 196 kts | 306° |
| 2026-04-16 01:16 | 25.09201 | 55.65029 | 7326 ft | 194 kts | 303° |
| 2026-04-16 01:16 | 25.09950 | 55.63784 | 6921 ft | 194 kts | 301° |
| 2026-04-16 01:16 | 25.10682 | 55.62534 | 6593 ft | 191 kts | 302° |
| 2026-04-16 01:17 | 25.11393 | 55.61304 | 6211 ft | 192 kts | 301° |
| 2026-04-16 01:17 | 25.12098 | 55.60057 | 5802 ft | 190 kts | 300° |
| 2026-04-16 01:17 | 25.12788 | 55.58824 | 5362 ft | 191 kts | 300° |
| 2026-04-16 01:17 | 25.13478 | 55.57591 | 4955 ft | 188 kts | 300° |
| 2026-04-16 01:18 | 25.14161 | 55.56366 | 4530 ft | 187 kts | 300° |
| 2026-04-16 01:18 | 25.14838 | 55.55150 | 4111 ft | 186 kts | 300° |
| 2026-04-16 01:18 | 25.15518 | 55.53930 | 3671 ft | 186 kts | 300° |
| 2026-04-16 01:18 | 25.16194 | 55.52721 | 3225 ft | 186 kts | 300° |
| 2026-04-16 01:19 | 25.16870 | 55.51513 | 2810 ft | 185 kts | 300° |
| 2026-04-16 01:19 | 25.17542 | 55.50311 | 2434 ft | 183 kts | 299° |
| 2026-04-16 01:19 | 25.18205 | 55.49123 | 2158 ft | 181 kts | 298° |
| 2026-04-16 01:19 | 25.18881 | 55.47908 | 1872 ft | 187 kts | 298° |
| 2026-04-16 01:20 | 25.19572 | 55.46728 | 1616 ft | 180 kts | 300° |
| 2026-04-16 01:20 | 25.20245 | 55.45667 | 1420 ft | 154 kts | 298° |
| 2026-04-16 01:20 | 25.20778 | 55.44702 | 1253 ft | 140 kts | 295° |
| 2026-04-16 01:20 | 25.21269 | 55.43795 | 980 ft | 137 kts | 296° |
| 2026-04-16 01:21 | 25.21724 | 55.42934 | 792 ft | 123 kts | 295° |
| 2026-04-16 01:21 | 25.22167 | 55.42105 | 623 ft | 128 kts | 294° |
| 2026-04-16 01:21 | 25.22634 | 55.41256 | 523 ft | 128 kts | 296° |
| 2026-04-16 01:21 | 25.23110 | 55.40380 | 316 ft | 137 kts | 295° |
| 2026-04-16 01:22 | 25.23589 | 55.39503 | 113 ft | 130 kts | 295° |
| 2026-04-16 01:22 | 25.24027 | 55.38701 | 49 ft | 106 kts | 301° |
| 2026-04-16 01:22 | 25.24351 | 55.38112 | 47 ft | 75 kts | 301° |
| 2026-04-16 01:22 | 25.24593 | 55.37679 | 41 ft | 59 kts | 302° |
| 2026-04-16 01:23 | 25.24742 | 55.37398 | 37 ft | 32 kts | 292° |
| 2026-04-16 01:23 | 25.24784 | 55.37165 | 34 ft | 29 kts | 271° |
| 2026-04-16 01:23 | 25.24781 | 55.36976 | 35 ft | 13 kts | 251° |
| 2026-04-16 01:23 | 25.24742 | 55.36936 | 34 ft | 6 kts | 213° |
| 2026-04-16 01:24 | 25.24733 | 55.36882 | 33 ft | 9 kts | 297° |
| 2026-04-16 01:24 | 25.24767 | 55.36800 | 30 ft | 13 kts | 288° |
| 2026-04-16 01:24 | 25.24790 | 55.36684 | 27 ft | 16 kts | 289° |
| 2026-04-16 01:24 | 25.24802 | 55.36612 | 26 ft | 6 kts | 228° |
| 2026-04-16 01:25 | 25.24762 | 55.36580 | 26 ft | 3 kts | 213° |
| 2026-04-16 01:25 | 25.24735 | 55.36563 | 26 ft | 3 kts | 212° |
| 2026-04-16 01:25 | 25.24733 | 55.36561 | 26 ft | 0 kts | 212° |